Top 250   1.2 GHz   UTC   Spotter   Comment  
S55ZMS/B   1296090.0   19 Feb 15:15   S51ZO   Jn86cr 599
DB0LTG   1296744.0   19 Feb 13:21   PA0O   PI4 -6 dB Q=84 255 km
DB0LTG   1296743.5   19 Feb 13:21   PA0O   PI4 -6 dB Q=84 255 km
OZ7IGY   1296930.0   19 Feb 13:18   PA0O   PI4 -11 dB Q=80 423 km
G0IIQ   1297350.0   19 Feb 09:02   IU1IEK   tnx qso on ao-92 mode L/v for me 2w!
ON0TB   1296950.0   19 Feb 07:13   PA0O   jo30bm<tr>jo33hg S2
GB3MHZ/B   1296830.0   18 Feb 22:20   G3XDY   Temp off air - fault
F1RRJ   1296350.0   18 Feb 21:14   IZ5TEP   TNX FOR QSO 23 CM SAT
IW1DTU   1296350.0   18 Feb 21:14   IZ5TEP   TNX FOR QSO 23 CM SAT
GB3MHZ   1296830.0   18 Feb 20:45   G4ASR   533 ROUGH & RASPY SIGNAL
OZ7IGY   1296930.0   18 Feb 20:15   PA0O   PI4 -1 dB Q=100 423 km
G0IIQ   1267382.0   18 Feb 19:51   IZ5ILX   JN54<SAT>IO93 < AO-92 / L mode >
ON4CJQ   1267373.0   18 Feb 19:50   IZ5ILX   JN54<SAT>JO21 < AO-92/ L mode
SP5MG   1267372.0   18 Feb 19:48   IZ5ILX   JN54<SAT>KO02 < AO-92/ L mode >
F1RRJ   1267362.0   18 Feb 19:47   IZ5ILX   JN54<SAT>JN09 < AO-92/ L mode >
SQ5KTM   1267360.0   18 Feb 19:46   IZ5ILX   JN54<SAT>KO02 < AO-92/ L mode >
IV3RYQ   1297359.0   18 Feb 19:45   IZ5ILX   JN54<SAT>JN65 < AO-92/ L mode >
DB0LTG   1296744.0   18 Feb 19:22   PA0O   PI4 9 dB Q=100 255 km
DB0LTG   1296743.5   18 Feb 19:22   PA0O   PI4 9 dB Q=100 255 km
PA1SDB   1296600.0   18 Feb 17:19   IK1HGI   Opera fb 73 ik1hgi
OZ7IGY   1296930.0   18 Feb 15:57   LA4ANA   PI4 -17 dB Q=32 493 km (as)
LU8ENU   1296050.0   18 Feb 15:11   DF2GB   JN39GM<EME>GF05RL
GB3MHZ   1296830.0   18 Feb 13:44   PA0O   hum tone
W4FWS/B   1296024.0   18 Feb 13:00   KW4BY   519
9A3JN   1296190.0   18 Feb 11:49   I1KFH   JN45FG<AS>JN85EL tnx cw qso
F6DZR   1296265.0   18 Feb 10:30   F5ICN  
F6APE   1296265.0   18 Feb 10:19   F5ICN  
I4UJB   1296200.0   18 Feb 09:59   HA5UA   JN97>JN64 SSB with AP
9A3JN   1296190.0   18 Feb 09:47   HA5UA   nice signal w AP
F6DKW   1296265.0   18 Feb 08:44   F5ICN   637 km
GB3MHZ   1296830.0   18 Feb 08:31   F6DKW   JN18CS<TR>JO02PB Big PSU problem
F1RJ   1296265.0   17 Feb 10:30   F5ICN   638 km
F1EYB   1296265.0   17 Feb 08:03   F5ICN  
W4FWS/B   1296024.0   16 Feb 11:36   KW4BY   319-559
HG3BUB/B   1296904.0   16 Feb 06:47   HA5HY   579 tr> jn97pp
OM3PV   1296200.0   15 Feb 16:44   DL6NCI   jn88ti<tr-as>jo50vi
OM3PV   1296200.0   15 Feb 16:39   DC8EC   519 - 569 tnx test
WA6UFQ/B   1296403.0   15 Feb 16:24   K5IM   EM20FJ<>EM00XH Beacon 59 CW
HB9BBD/B   1296050.0   15 Feb 13:24   DK2EA   JO50UF<TR>JN47GA 319 in&out
OK0EB   1296970.0   15 Feb 09:39   DK2EA   JO50UF<TR>JN78DU 429QSB
OZ7IGY   1296930.0   14 Feb 19:38   DJ6OL   PI4 -14 dB Q=58 342 km <as>
W4FWS/B   1296024.4   14 Feb 12:24   KW4BY   519-559
HB9BBD/B   1296050.0   14 Feb 11:56   DK2EA   JO50UF<TR>JN47GA vy weak in&out
W4FWS/B   1296026.0   14 Feb 01:27   KW4BY   s1
OZ7IGY   1296930.0   13 Feb 20:34   DJ6OL   PI4 -11 dB Q=64 342 km <tr>
W4FWS   1296025.3   13 Feb 12:49   KW4BY   s1 bcn
OK0EB   1296970.0   13 Feb 09:41   DK2EA   JO50UF<TR>JN78DU 319 BN
OK0EA/B   1296899.0   13 Feb 09:32   DL6NCI   jo70up<tr>jo50vi 529
W4FWS/B   1296025.0   12 Feb 11:30   KW4BY   s1
W4FWS/B   1296027.0   12 Feb 01:58   KW4BY   339-s1
W4FWS/B   1296026.8   12 Feb 01:58   KW4BY   339-s1
EA4CYQ   1267375.0   11 Feb 21:55   IZ5ILX   JN54<SAT>IM78 < AO-92/ L mode >
IW1DTU   1267380.0   11 Feb 21:00   IZ5ILX   JN54<SAT>JN35 < AO-92/ L mode >
G0IIQ   1267387.0   11 Feb 20:57   IZ5ILX   JN54<SAT>IO93 < AO-92 / L mode >
SP5MG   1267382.0   11 Feb 20:56   IZ5ILX   JN54<SAT>KO02 < AO-92/ L mode >
IK8XLD   1267382.0   11 Feb 20:55   IZ5ILX   JN54<SAT>JN70 < AO-92 L mode >
IU1IEK   1267380.0   11 Feb 20:54   IZ5ILX   JN54<SAT>JN44 < AO-92 L mode >
EA5TT   1267380.0   11 Feb 20:53   IZ5ILX   JN54<SAT>IM99 < AO-92 L mode >
OM0MLA/B   1296877.0   11 Feb 18:40   OE3JPC   JN88-JN87 599
DF5VAE   1296174.0   11 Feb 17:16   DL9LBH   JN59ID<TR>JO64RK FT8 tnx qso
OK0EKL   1296890.0   11 Feb 17:13   OE3JPC   bcn JO60-JN87 519qyb
OK0EB   1296970.0   11 Feb 17:11   OE3JPC   bcn 539 JN78-78 weak
HG7BUB   1296960.0   11 Feb 17:08   OE3JPC   bcn 559 JN97-JN87
DL9LBH   1296174.0   11 Feb 17:06   DF5VAE   FT8 -16 dB
EG4UUD   1312000.0   11 Feb 15:53   EA8BUS   59
DL9LBH   1296174.0   11 Feb 14:46   DL9LBH   CQ FT8
IW1DTU   1267372.0   11 Feb 11:22   IZ5ILX   JN54<SAT>JN35 < AO-92/ L mode >
G0IIQ   1267373.0   11 Feb 11:21   IZ5ILX   JN54<SAT>IO93 < AO-92 / L mode >
9A3JN   1296180.0   11 Feb 10:20   DL6NCI   jn85el<AS>jo50vi
OK0EA/B   1296899.0   11 Feb 08:14   DL6NCI   jo70up<tr>jo50vi 529
OK0EA/B   1296898.6   11 Feb 08:14   DL6NCI   jo70up<tr>jo50vi 529
DB0AAT/B   1296926.0   11 Feb 08:11   DL6NCI   jn67hu<tr>jo50vi 519
DB0AAT/B   1296925.7   11 Feb 08:11   DL6NCI   jn67hu<tr>jo50vi 519
W4FWS/B   1296025.0   10 Feb 23:14   KW4BY   out of noise to s1
W4FWS/B   1296024.8   10 Feb 23:14   KW4BY   out of noise to s1
GB3FRS   1296848.0   10 Feb 18:24   G4BAO   <tr><as> normal,no keying
GB3FRS   1296847.6   10 Feb 18:24   G4BAO   <tr><as> normal,no keying
F8CH   1296200.0   10 Feb 17:52   F6HTJ   JN03po<tr>JN12kq via Madres
ED3YAR/B   1296929.0   10 Feb 10:27   F6HTJ   JN01WU omni beacon
GB3MHZ/B   1296830.0   10 Feb 10:14   F5HRY   529 in JN18
DM0UB/B   1296850.0   09 Feb 08:21   DL6NCI   jo62kk<tr>jo50vi 529
OK0EA/B   1296899.3   09 Feb 08:17   DL6NCI   jo70up<tr>jo50vi 539
VK1AD/P   1296150.0   08 Feb 21:49   VK1AD   VK1/AC-035
OK0EB   1296970.0   08 Feb 14:31   DK2EA   JO50UF<TR>JN78DU 319 BN
OK0EA/B   1296899.2   08 Feb 08:31   DL6NCI   jo70up<tr>jo50vi 529
DM0UB/B   1296850.0   08 Feb 08:27   DL6NCI   jo62kk<tr>jo50vi 529 norm nil
HB9BBD/P   1296050.0   08 Feb 07:15   DK1PZ   JO41TH <TR> JN47GA 419 QSB
DB0JK/B   1296865.0   08 Feb 06:56   DL7QY   JO30KX<Tr>JN59BD 15dB anl
DB0XY/B   1296911.0   08 Feb 06:40   DL7QY   JO51EU<Tr>JN59BD 31dB anl
PI7ALK/B   1296916.0   07 Feb 18:39   DK1PZ   JO41TH <TR> JO22IP 419 QSB
DK1PZ   1296266.0   07 Feb 14:34   DL6NCI   jo41th<AS>jo50vi SSB
HB9BBD/P   1296051.0   07 Feb 10:40   DK1PZ   JO41TH <TR> JN47GA 429 QSB
HB9BBD/P   1296050.9   07 Feb 10:40   DK1PZ   JO41TH <TR> JN47GA 429 QSB
OK0EA/B   1296900.0   07 Feb 08:51   DL6NCI   jo70up<tr>jo50vi 529
OK0EA/B   1296899.6   07 Feb 08:51   DL6NCI   jo70up<tr>jo50vi 529
K6QPV/BEC   1296298.0   07 Feb 05:26   W6OAR   599 DM12MG >DM!$ GL
OK0EKL   1296890.0   06 Feb 14:34   DK2EA   JO50UF<TR>JO60LJ 599+ as usual
OK0EB   1296970.0   06 Feb 14:33   DK2EA   JO50UF<TR>JN78DU 429 QSB
DB0AAT   1296925.0   06 Feb 14:30   DK2EA   JO50UF<TR>JN67HU 419 in&out
HB9BBD/B   1296050.0   06 Feb 07:40   DL7QY   JN47GA<Tr>JN59BD 54dB anl
IZ5TEP   1267370.0   04 Feb 19:53   IZ5ILX   JN54<SAT>JN53 < AO-92/ L mode >
ON4CJQ   1267360.0   04 Feb 19:52   IZ5ILX   JN54<SAT>JO21 < AO-92/ L mode >
IZ1ERR   1267370.0   04 Feb 19:50   IZ5ILX   JN54<SAT>JN35 < AO-92/ L mode >
SP8CGR   1267365.0   04 Feb 19:49   IZ5ILX   JN54<SAT>KO10 < AO-92/ L mode >
SP5MG   1267370.0   04 Feb 19:47   IZ5ILX   JN54<SAT>KO02 < AO-92/ L mode >
IW1DTU   1267370.0   04 Feb 19:46   IZ5ILX   JN54<SAT>JN35 < AO-92/ L mode >
IK3GHY   1296255.0   04 Feb 11:29   OK1TEH   jo70-jn65 contest Romagna tnx
F1IOZ   1296265.0   04 Feb 10:34   F5ICN  
F5PVX/P   1296200.0   04 Feb 10:13   F6HTJ   JN23we contest
IQ3QR   1296310.0   04 Feb 10:00   IU3GKJ   Contest Romagna 1200
F6DZR   1296240.0   04 Feb 09:54   F5ICN  
IK3GHY   1296250.0   04 Feb 09:15   DL6NCI   jn65dm<AS>jo50vi contest
HB9EI/B   1296891.0   04 Feb 09:11   IK4ADE   jn46kc 5/5 320 Km
IK2OFO   1296290.0   04 Feb 09:10   F6DKW   JN18CS<TR>JN45PB Loud on Paris !
DH3NAN   1296190.0   03 Feb 17:24   F6DKW   JN18CS<TR>JO50NC Nice Cw Tnx !
DL3ZAE/P   1296260.0   03 Feb 10:56   DF7RG   JN57AE<TR>JN68HG BBT
DH1DM/P   1296260.0   03 Feb 10:34   DL6NCI   jo60vr<tr>jo50vi bbt
DL4SBK/P   1296228.0   03 Feb 10:24   DL2OM/P   I call in ur direction
DL2OM/P   1296230.0   03 Feb 10:24   DK2EA   CQ test
DL2OM/P   1296230.0   03 Feb 10:23   DK2EA   fb!, tnx
DL2OM   1296227.0   03 Feb 10:18   DK2EA   JO50UF<>JO30SN gm, ich hre Dich
DH1DM/P   1296260.0   03 Feb 10:15   DL3IAS   JO60VR<>JN49EJ BBT +DG2DWL/p
DK1PZ   1296228.0   03 Feb 10:13   DL2OM/P   Ich rufe in Richtung JO41
DL2OM/P   1296228.0   03 Feb 10:08   DK1PZ  
DL2OM/P   1296227.0   03 Feb 10:08   DL3IAS   JO30TM<>JN49EJ BBT
DL2OM/P   1296228.0   03 Feb 10:02   DL2OM   CQ aus JO30TM
DL1RQ/P   1296205.0   03 Feb 09:49   DF9RJ   JN68GS TR JN69JA BBT
DK1PZ   1296265.0   03 Feb 09:47   DL6NCI   jo41th<as>jo50vi bbt new#
DL1RTD/P   1296223.0   03 Feb 09:44   DF7RG   JN59NB<TR>JN68HG BBT
DC7YS/P   1296193.0   03 Feb 09:44   DL3IAS   JN49CV<>JN49EJ BBT +DJ5AR/p
HB9DWK   1296220.0   03 Feb 09:34   DL3IAS   JN47PK<>JN49EJ BBT
DL4SBK/P   1296225.0   03 Feb 09:32   DL3IAS   JN47AU<>JN49EJ BBT +DG1GLH/p
DL9MFY/P   1296230.0   03 Feb 09:28   DF7RG   JN57SP BBT
HB9BBD/P   1296050.0   03 Feb 09:25   DK1PZ   JO41TH <TR> JN47GA 419 QSB
DL3SFB/P   1296203.0   03 Feb 09:15   DL3IAS   JN48CO<>JN49EJ BBT +DC8TM/p
DL1RQ/P   1296201.0   03 Feb 09:12   DF7RG   JN69JA BBT
OK1KAD   1296195.0   03 Feb 09:09   DL6NCI   jo60lj<tr>jo50vi BBT
I5CTE   1296200.0   31 Jan 18:16   IK2OFO   JN45PB<ACS>JN53XH
KE5EE   1320000.0   31 Jan 13:49   SP2LIG   5/7 in Gdynia
I4UJB   1296210.0   30 Jan 15:49   S51ZO   jn64cf/jn86dr 59
I4UJB   1296200.0   30 Jan 14:53   DL6NCI   jn64cf<AS>jo50vi
DB0XY/B   1296911.0   30 Jan 08:38   DL6NCI   jo51eu<tr>jo50vi 539
IZ1ERR/B   1296445.0   30 Jan 08:03   IK2OFO   599
IQ0AH/B   1296870.0   29 Jan 14:55   IU0FNL   jn61fu tr jn40qw 519
GB3MHZ   1296830.0   29 Jan 08:24   F6DKW   JN18CS<TR>JO02PB 599
F6DKW   1296265.0   28 Jan 08:57   F5ICN   638 km
GB3MHZ   1296830.0   28 Jan 08:15   F6DKW   JN18CS<TR>JO02PB 599
DF0ANN   1296965.0   27 Jan 18:23   DK2EA   JO50UF<TR>JN59PL 579 vy QSB
DB0FGB   1296840.0   27 Jan 18:21   DK2EA   JO50UF<TR>JO50WB 599+
OK0EKL   1296890.0   27 Jan 18:20   DK2EA   JO50UF<TR>JO60LJ 599+
OK0EB   1296970.0   27 Jan 18:19   DK2EA   JO50UF<TR>JN78DU 429
DB0AAT   1296925.0   27 Jan 18:15   DK2EA   JO50UF<TR>JN67HU 419
HB9BBD/B   1296050.0   27 Jan 18:13   DK2EA   JO50UF<TR>JN47GA audible R3
F6DKW   1296331.0   27 Jan 08:02   F5BUU   jn18cs<tr>JN03PO nice
OK0EKL   1296890.0   26 Jan 12:08   DK2EA   JO50UF<TR>JO60LJ 599+
OK0EB   1296970.0   26 Jan 12:06   DK2EA   JO50UF<TR>JN78DU 439
DB0AAT   1296925.0   26 Jan 12:06   DK2EA   JO50UF<TR>JN67HU 429
HB9BBD/B   1296050.0   26 Jan 12:04   DK2EA   JO50UF<TR>JN47GA 419
IQ0AH/B   1296869.0   25 Jan 16:37   IZ0CLS   599 jn52<tr>jn40 qsb
HB9BBD/B   1296050.0   24 Jan 17:42   DK2EA   JO50UF<TR>JN47GA just audible R3
S55ZRS/B   1296380.0   24 Jan 15:02   S51ZO   JN76MC 599
S55ZMS/B   1296090.0   24 Jan 15:02   S51ZO   Jn86cr 599
DF0ANN   1296965.0   24 Jan 12:08   DK2EA   some windmills on path
DF0ANN/B   1296965.0   24 Jan 12:06   DK2EA   JO50UF<TR>JN59PL chaotic QSB
DB0FGB   1296840.0   24 Jan 12:02   DK2EA   JO50UF<TR>JO50WB 599++
OK0EKL   1296890.0   24 Jan 11:58   DK2EA   JO50UF<TR>JO60LJ 599+ usual
OK0EB   1296970.0   24 Jan 11:56   DK2EA   JO50UF<TR>JN78DU 539 QSB
DB0AAT   1296925.0   24 Jan 11:55   DK2EA   JO50UF<TR>JN67HU 429 QSB
F1RJ/P   1296200.0   24 Jan 09:26   F6BVA   Tropo+ from JN12MQ
F1RJ/P   1296200.0   24 Jan 09:24   F6BVA   Fine tropo from JN12MQ
HB9BBD/B   1296050.0   23 Jan 18:29   DK2EA   JO50UF<TR>JN47GA 559 AN
OK0EB   1296970.0   23 Jan 18:27   DK2EA   JO50UF<TR>JN78DU 549
DB0AAT   1296925.0   23 Jan 18:25   DK2EA   JO50UF<TR>JN67HU 529
VK2DC   1296100.0   23 Jan 09:44   VK2XAX  
VK2YOC   1296100.0   23 Jan 09:44   VK2XAX  
VK2YAC   1296100.0   23 Jan 09:44   VK2XAX  
VK2TMC   1296100.0   23 Jan 09:44   VK2XAX  
VK2FLR   1296100.0   23 Jan 09:43   VK2XAX  
VK2AZ   1296100.0   23 Jan 09:43   VK2XAX  
F1EYB   1296210.0   22 Jan 09:01   F6DKW   JN18CS<TR>JN23KK Dp13 Gd signal
F1EYB   1296210.0   22 Jan 07:32   F6DZR   IN96RT<>JN23KK
F1EYB   1296210.0   22 Jan 07:29   F6DZR   IN96RT<TR>JN23KK
K4SME/R   1296100.0   21 Jan 23:23   W4RAA   EL99<>EM90
ES6FX   1296075.0   21 Jan 17:52   DF2GB   JN39GM<EME>KO37OW
LU8ENU   1296065.0   21 Jan 17:40   DF2GB   JN39GM<>GF05RL
AB9QH   1296100.0   21 Jan 16:10   KU8Y   EN61UW<>EN62AA
K2DRH   1296100.0   21 Jan 15:49   KU8Y   EN61UW<>EN41
DL4FNM   1296300.0   21 Jan 13:20   DL4FNM   JO51MF
9A5M   1296290.0   21 Jan 11:39   IK4ADE   jn95go Sorry!
N9A5M   1296290.0   21 Jan 11:38   IK4ADE   jn95go -jn54oe 600 Km
N4NGZ   1296100.0   21 Jan 11:23   W4RAA   el99<>EL98 thx
W8PU   1296100.0   21 Jan 01:06   WZ8D  
DC1RN   1296100.0   20 Jan 23:34   DJ8RZ   in JN58RQ
K4SME/R   1296100.0   20 Jan 23:25   W4RAA   EL99LF<>EL98AX 56
NCCEI/R   1296100.0   20 Jan 23:25   W4RAA   EL99LF<>EL98AX 56
VK1AD/P   1296150.0   20 Jan 21:54   VK1AD   VK1/AC-023
VK1AD/P   1296000.0   20 Jan 21:40   VK1AD   VK1/AC-023
I5CTE   1296200.0   20 Jan 21:09   IK3GHY   jn53xg AS jn65dm Loud SSB
I4UJB   1296200.0   20 Jan 19:28   IK2OFO   JN45PB<TR>JN64CF
OK0EKL/B   1296890.0   20 Jan 18:29   IK3GHY   549 AS jo60lj
OK0EKL   1296890.0   20 Jan 18:15   OE3JPC   bcn JO60-JN87 529qsb norm
IQ0AH/B   1296870.0   20 Jan 17:45   IK3GHY   579 AS jn40qw
HG3BUB/B   1296905.0   20 Jan 12:13   9A2SB   jn96cc 599++++
S55ZRS/B   1296380.0   18 Jan 19:57   S51WX   jn75OS<tr>jn76MC 599++
S55ZMS/B   1296096.0   18 Jan 19:53   S51WX   jn75OS<tr>jn86CR 599
HG1BUB/B   1296972.0   18 Jan 19:52   S51WX   jn75OS<tr>jn87FI 519 weak
OZ7IGY   1296930.0   17 Jan 13:55   PA0O   PI4 -5 dB Q=100 423 km
G3VKV   1296189.0   16 Jan 21:31   G0LGS   CQ
DH8NAS   1296200.0   16 Jan 21:23   IK3GHY   jn65 AS jo50 tnx
I4UJB   1296280.0   16 Jan 21:06   OK1TEH   NAC/IAC jo70-jn64 680km FB
SK0CT   1296212.0   16 Jan 21:00   OZ9PZ   JO46LC<>JO99BM
OH3TR   1296195.0   16 Jan 20:59   OH5LK   CQing
DL0VV   1296190.0   16 Jan 20:44   DM2ECM   JO62GJ<TR>JO64AD tnx Manfred, vy 73
IK3GHY   1296150.0   16 Jan 20:36   DL6NCI   jn65dm<AS>jo50vi
SK7MW   1296225.0   16 Jan 20:34   DM2ECM   JO62GJ<TR>JO65MJ tnx Tor, vy 73
M0GHZ   1296251.0   16 Jan 20:24   G1EZF   IO93FT<TR>IO81VK tnx dave test
M0BUX   1296274.0   16 Jan 20:23   G0LGS   CQ
GI6ATZ   1296285.0   16 Jan 20:22   GI4MHD   UKAC
IQ3VO   1296270.0   16 Jan 20:21   IK4ADE   jn55ll & co.
SK7MW   1296225.0   16 Jan 20:19   DL6NCI   jo65mj<tr as)jo50vi
M0GHZ   1296251.0   16 Jan 20:16   G0LGS   CQ
G8OHM   1296220.0   16 Jan 20:13   G0LGS   CQ
SP2DDV   1296280.0   16 Jan 20:04   OK1TEH   NAC/SPAC jo70-jo83 tnx
G8DMU/P   1296188.0   16 Jan 19:57   M0ORO   io94cb
OH5ZB   1296185.0   16 Jan 19:34   OH5LK   Clg CQ test
HA5HY   1296219.0   16 Jan 19:26   DL6NCI   jn97pp<AS>jo50vi
G1YBB/P   1296265.0   16 Jan 19:24   G0LGS   CQ
OH3LWP   1296234.0   16 Jan 19:08   SM7LCB   JO86>KP21 721km tnx qso!
SP9CP   1296230.0   16 Jan 19:01   DL6NCI   jo90mt<tr>jo50vi
IK3VZO   1296260.0   16 Jan 18:25   DL6NCI   jn55xa<AS>jo50vi
SK0EN   1296185.0   16 Jan 18:20   OZ9PZ   JO46LC<>JO99JX Tex qso
DL0VV   1296190.0   16 Jan 18:06   DL6NCI   jo64ad<tr>jo50vi
SR6LHZ   1296829.0   16 Jan 17:57   DL5DSB   JO71FC<TR>JO70SS Beacon 599+
OK0EKL   1296890.0   16 Jan 17:56   DL5DSB   JO71FC<TR>JO60LJ Beacon 579
DB0VC/B   1296920.0   16 Jan 17:52   DL4LAB   JO53BQ<>JO54IF
S55ZMS/B   1296090.0   16 Jan 11:49   S51ZO   Jn86cr 599
HB9BBD/B   1296050.0   15 Jan 10:57   DK2EA   JO50UF<TR>JN47GA 429
DB0AAT   1296925.0   15 Jan 10:47   DK2EA   JO50UF<TR>JN67HU audible 0,6up
HB9BBD/B   1296050.0   15 Jan 07:25   DL7QY   JN47GA<Tr>JN59BD 58dB anl
F6DKW   1296331.0   14 Jan 10:23   F5BUU   jn18cs<tr>JN03PO weak
F5AYE   1296210.0   14 Jan 10:22   F6DKW   Dp74 Loud
F5PVX/P   1296215.0   14 Jan 09:59   F6HTJ   JN23we<tr>JN12kq contest
DB0XY/B   1296911.0   14 Jan 08:31   DL7QY   JO51EU<Tr>JN59BD 30dB anl
DB0XY/B   1296911.0   13 Jan 22:00   DL7QY   JO51EU<Tr>JN59BD 40dB anl
OZ7IGY/B   1296930.0   13 Jan 21:57   DL7QY   JO55WM<Tr>JN59BD 21dB anl
DB0VC/B   1296920.0   13 Jan 21:54   DL7QY   JO54IF<Tr>JN59BD 15dB anl
GB3CFG   1296905.0   13 Jan 21:20   G6AVK   PI4 -16 dB Q=58 552 km <as>
GB3CSB/B   1296985.0   13 Jan 20:48   G4DBN   IO75XX<AS>IO93NR 529 no decode
GB3MCB/B   1296859.2   13 Jan 20:19   G4DBN   IO70OJ<AS>IO93NR 519
SK3UHG/B   1296854.0   13 Jan 18:52   SM7GEP   569 jo77<tr>jp92